createdAt,value
2019-04-14T00:00:01.184Z,58.51
2019-04-14T00:01:02.101Z,57.94
2019-04-14T00:02:01.043Z,58.41
2019-04-14T00:03:00.913Z,58.32
2019-04-14T00:04:00.939Z,57.65
2019-04-14T00:05:01.853Z,57.65
2019-04-14T00:06:00.994Z,58.03
2019-04-14T00:07:01.535Z,58.13
2019-04-14T00:08:02.361Z,58.03
2019-04-14T00:09:01.111Z,58.13
2019-04-14T00:10:01.110Z,58.41
2019-04-14T00:11:01.800Z,58.03
2019-04-14T00:12:04.291Z,58.22
2019-04-14T00:13:02.423Z,58.13
2019-04-14T00:14:01.224Z,58.13
2019-04-14T00:15:02.414Z,57.84
2019-04-14T00:16:01.280Z,58.41
2019-04-14T00:17:02.130Z,57.46
2019-04-14T00:18:01.339Z,58.51
2019-04-14T00:19:02.286Z,58.41
2019-04-14T00:20:01.396Z,57.84
2019-04-14T00:21:02.266Z,58.13
2019-04-14T00:22:01.451Z,58.41
2019-04-14T00:23:02.197Z,58.22
2019-04-14T00:24:01.510Z,58.51
2019-04-14T00:25:02.408Z,58.22
2019-04-14T00:26:01.567Z,58.41
2019-04-14T00:27:02.029Z,58.13
2019-04-14T00:28:01.623Z,58.13
2019-04-14T00:29:02.651Z,58.89
2019-04-14T00:30:01.682Z,58.80
2019-04-14T00:31:02.338Z,58.22
2019-04-14T00:32:02.979Z,58.61
2019-04-14T00:33:01.969Z,58.61
2019-04-14T00:34:02.865Z,58.41
2019-04-14T00:35:01.917Z,58.70
2019-04-14T00:36:02.278Z,58.32
2019-04-14T00:37:01.883Z,58.32
2019-04-14T00:38:02.366Z,58.80
2019-04-14T00:39:03.115Z,58.41
2019-04-14T00:40:02.042Z,58.22
2019-04-14T00:41:02.904Z,58.51
2019-04-14T00:42:03.527Z,58.51
2019-04-14T00:43:02.733Z,58.51
2019-04-14T00:44:02.080Z,58.41
2019-04-14T00:45:02.861Z,58.61
2019-04-14T00:46:02.701Z,58.32
2019-04-14T00:47:02.823Z,58.80
2019-04-14T00:48:09.270Z,59.17
2019-04-14T00:49:02.834Z,59.27
2019-04-14T00:50:02.290Z,59.27
2019-04-14T00:51:02.786Z,58.98
2019-04-14T00:52:03.560Z,59.08
2019-04-14T00:53:03.452Z,59.27
2019-04-14T00:54:02.366Z,59.36
2019-04-14T00:55:03.269Z,59.27
2019-04-14T00:56:02.423Z,59.27
2019-04-14T00:57:03.167Z,58.80
2019-04-14T00:58:02.485Z,58.80
2019-04-14T00:59:02.844Z,59.17
2019-04-14T01:00:03.792Z,59.17
2019-04-14T01:01:02.763Z,59.08
2019-04-14T01:02:03.452Z,59.46
2019-04-14T01:03:02.625Z,59.17
2019-04-14T01:04:03.445Z,59.17
2019-04-14T01:05:02.713Z,59.55
2019-04-14T01:06:03.224Z,59.46
2019-04-14T01:07:02.742Z,59.65
2019-04-14T01:08:03.116Z,60.13
2019-04-14T01:09:02.794Z,60.03
2019-04-14T01:10:03.897Z,60.13
2019-04-14T01:11:03.136Z,59.84
2019-04-14T01:12:03.817Z,60.03
2019-04-14T01:13:02.907Z,60.60
2019-04-14T01:14:03.748Z,60.50
2019-04-14T01:15:03.145Z,60.79
2019-04-14T01:16:08.981Z,60.98
2019-04-14T01:17:03.022Z,61.07
2019-04-14T01:18:03.611Z,61.17
2019-04-14T01:19:03.079Z,61.07
2019-04-14T01:20:03.646Z,61.26
2019-04-14T01:21:03.139Z,61.45
2019-04-14T01:22:03.265Z,61.83
2019-04-14T01:23:04.169Z,62.02
2019-04-14T01:24:03.278Z,61.55
2019-04-14T01:25:04.257Z,61.93
2019-04-14T01:26:03.283Z,62.21
2019-04-14T01:27:03.930Z,62.40
2019-04-14T01:28:04.561Z,62.78
2019-04-14T01:29:03.687Z,62.78
2019-04-14T01:30:04.478Z,62.78
2019-04-14T01:31:03.453Z,63.07
2019-04-14T01:32:04.519Z,63.54
2019-04-14T01:33:03.483Z,63.64
2019-04-14T01:34:04.117Z,63.83
2019-04-14T01:35:03.535Z,64.02
2019-04-14T01:36:03.945Z,64.11
2019-04-14T01:37:03.594Z,64.11
2019-04-14T01:38:03.845Z,64.49
2019-04-14T01:39:04.646Z,64.97
2019-04-14T01:40:03.677Z,64.87
2019-04-14T01:41:04.238Z,64.78
2019-04-14T01:42:04.844Z,65.16
2019-04-14T01:43:03.912Z,65.16
2019-04-14T01:44:04.646Z,65.82
2019-04-14T01:45:03.819Z,65.44
2019-04-14T01:46:13.714Z,66.58
2019-04-14T01:47:05.158Z,66.49
2019-04-14T01:48:03.947Z,66.01
2019-04-14T01:49:05.012Z,66.30
2019-04-14T01:50:03.961Z,66.58
2019-04-14T01:51:04.862Z,66.49
2019-04-14T01:52:04.027Z,66.67
2019-04-14T01:53:05.311Z,66.67
2019-04-14T01:54:04.074Z,66.77
2019-04-14T01:55:04.797Z,67.15
2019-04-14T01:56:04.133Z,66.96
2019-04-14T01:57:04.586Z,67.15
2019-04-14T01:58:05.306Z,67.15
2019-04-14T01:59:04.455Z,66.96
2019-04-14T02:00:05.308Z,67.15
2019-04-14T02:01:04.273Z,67.25
2019-04-14T02:02:05.125Z,67.25
2019-04-14T02:03:04.331Z,67.82
2019-04-14T02:04:04.978Z,67.34
2019-04-14T02:05:04.389Z,67.34
2019-04-14T02:06:04.826Z,67.31
2019-04-14T02:07:04.446Z,67.34
2019-04-14T02:08:04.536Z,67.15
2019-04-14T02:09:05.371Z,67.63
2019-04-14T02:10:04.529Z,67.63
2019-04-14T02:11:05.224Z,67.82
2019-04-14T02:12:04.595Z,67.82
2019-04-14T02:13:04.964Z,68.58
2019-04-14T02:14:04.645Z,68.48
2019-04-14T02:15:04.804Z,68.39
2019-04-14T02:16:16.511Z,68.01
2019-04-14T02:17:06.061Z,68.01
2019-04-14T02:18:05.654Z,68.83
2019-04-14T02:19:04.814Z,69.05
2019-04-14T02:20:05.604Z,69.02
2019-04-14T02:21:04.843Z,69.05
2019-04-14T02:22:05.145Z,69.02
2019-04-14T02:23:06.009Z,69.59
2019-04-14T02:24:05.001Z,69.40
2019-04-14T02:25:05.692Z,69.30
2019-04-14T02:26:04.988Z,69.11
2019-04-14T02:27:05.574Z,69.87
2019-04-14T02:28:05.045Z,69.87
2019-04-14T02:29:05.773Z,69.59
2019-04-14T02:30:08.851Z,70.35
2019-04-14T02:31:17.159Z,70.25
2019-04-14T02:32:33.874Z,70.25
2019-04-14T02:33:38.980Z,70.82
2019-04-14T02:36:36.382Z,70.63
2019-04-14T02:39:38.908Z,71.01
2019-04-14T02:40:39.275Z,71.11
2019-04-14T02:42:34.413Z,71.39
2019-04-14T02:45:35.145Z,71.48
2019-04-14T02:46:38.291Z,71.77
2019-04-14T02:48:44.225Z,71.58
2019-04-14T02:49:40.486Z,71.86
2019-04-14T02:50:48.309Z,71.86
2019-04-14T02:53:50.098Z,71.96
2019-04-14T02:54:53.037Z,72.25
2019-04-14T02:55:40.976Z,72.25
2019-04-14T02:56:28.041Z,72.25
2019-04-14T02:57:30.382Z,71.96
2019-04-14T02:58:37.822Z,72.91
2019-04-14T02:59:29.066Z,72.72
2019-04-14T03:01:29.622Z,72.72
2019-04-14T03:02:36.827Z,72.81
2019-04-14T03:03:35.595Z,72.81
2019-04-14T03:05:34.275Z,72.91
2019-04-14T03:06:52.210Z,73.19
2019-04-14T03:07:37.879Z,73.00
2019-04-14T03:08:34.345Z,73.57
2019-04-14T03:09:38.802Z,73.10
2019-04-14T03:10:31.955Z,73.00
2019-04-14T03:11:31.282Z,73.57
2019-04-14T03:12:31.524Z,73.10
2019-04-14T03:14:40.389Z,73.67
2019-04-14T03:15:35.199Z,73.38
2019-04-14T03:16:39.389Z,73.19
2019-04-14T03:18:44.627Z,73.38
2019-04-14T03:19:35.411Z,73.67
2019-04-14T03:23:48.923Z,73.96
2019-04-14T03:24:32.914Z,74.05
2019-04-14T03:25:26.441Z,74.62
2019-04-14T03:26:40.391Z,74.15
2019-04-14T03:29:34.780Z,74.62
2019-04-14T03:31:59.378Z,74.81
2019-04-14T03:32:53.500Z,75.09
2019-04-14T03:37:21.925Z,74.81
2019-04-14T03:38:54.828Z,74.81
2019-04-14T03:39:46.036Z,74.62
2019-04-14T03:40:34.005Z,74.62
2019-04-14T03:41:32.610Z,74.62
2019-04-14T03:42:43.925Z,75.00
2019-04-14T03:43:30.614Z,75.19
2019-04-14T03:44:37.813Z,75.57
2019-04-14T03:45:54.251Z,75.67
2019-04-14T03:46:39.738Z,75.47
2019-04-14T03:49:37.325Z,75.76
2019-04-14T03:51:38.249Z,75.57
2019-04-14T03:52:37.613Z,75.67
2019-04-14T03:53:38.527Z,75.38
2019-04-14T03:54:25.930Z,75.38
2019-04-14T03:55:20.233Z,75.95
2019-04-14T03:56:11.393Z,75.85
2019-04-14T03:57:08.311Z,75.67
2019-04-14T03:58:08.392Z,75.57
2019-04-14T03:59:08.473Z,75.76
2019-04-14T04:00:07.638Z,75.76
2019-04-14T04:01:08.358Z,75.38
2019-04-14T04:02:07.695Z,76.04
2019-04-14T04:03:08.491Z,76.32
2019-04-14T04:04:07.748Z,76.04
2019-04-14T04:05:08.548Z,75.76
2019-04-14T04:06:07.805Z,76.10
2019-04-14T04:07:08.217Z,75.91
2019-04-14T04:08:07.869Z,76.20
2019-04-14T04:09:08.337Z,75.91
2019-04-14T04:10:09.213Z,75.91
2019-04-14T04:11:08.400Z,75.81
2019-04-14T04:12:07.974Z,75.91
2019-04-14T04:13:08.341Z,75.95
2019-04-14T04:14:08.031Z,75.91
2019-04-14T04:15:08.379Z,76.23
2019-04-14T04:16:09.300Z,76.39
2019-04-14T04:17:08.113Z,76.48
2019-04-14T04:18:09.117Z,76.57
2019-04-14T04:19:13.009Z,76.39
2019-04-14T04:20:08.960Z,76.57
2019-04-14T04:21:09.465Z,76.39
2019-04-14T04:22:08.557Z,76.29
2019-04-14T04:23:09.449Z,76.04
2019-04-14T04:24:08.608Z,76.52
2019-04-14T04:25:09.444Z,76.39
2019-04-14T04:26:08.373Z,76.71
2019-04-14T04:27:08.984Z,75.91
2019-04-14T04:28:08.424Z,76.04
2019-04-14T04:29:09.167Z,75.95
2019-04-14T04:30:08.479Z,75.85
2019-04-14T04:31:08.902Z,76.04
2019-04-14T04:32:08.535Z,75.85
2019-04-14T04:33:08.742Z,76.14
2019-04-14T04:34:09.711Z,75.85
2019-04-14T04:35:08.636Z,75.95
2019-04-14T04:36:09.512Z,75.85
2019-04-14T04:37:08.675Z,75.95
2019-04-14T04:38:09.546Z,75.81
2019-04-14T04:39:08.731Z,75.76
2019-04-14T04:40:09.403Z,76.42
2019-04-14T04:41:10.034Z,76.80
2019-04-14T04:42:09.137Z,75.95
2019-04-14T04:43:10.090Z,75.81
2019-04-14T04:44:09.428Z,76.42
2019-04-14T04:45:08.903Z,76.42
2019-04-14T04:46:09.154Z,76.23
2019-04-14T04:47:09.927Z,76.42
2019-04-14T04:48:09.085Z,76.32
2019-04-14T04:49:15.119Z,76.80
2019-04-14T04:50:09.039Z,76.71
2019-04-14T04:51:09.315Z,77.18
2019-04-14T04:52:11.441Z,77.09
2019-04-14T04:53:09.186Z,77.18
2019-04-14T04:54:10.222Z,77.28
2019-04-14T04:55:09.179Z,77.28
2019-04-14T04:56:10.019Z,76.99
2019-04-14T04:57:09.235Z,77.09
2019-04-14T04:58:10.055Z,77.37
2019-04-14T04:59:09.767Z,77.18
2019-04-14T05:00:09.356Z,76.71
2019-04-14T05:01:09.951Z,77.28
2019-04-14T05:02:09.375Z,77.28
2019-04-14T05:03:10.030Z,77.09
2019-04-14T05:04:09.432Z,77.09
2019-04-14T05:05:09.859Z,77.28
2019-04-14T05:06:09.493Z,77.47
2019-04-14T05:07:09.915Z,77.09
2019-04-14T05:08:10.824Z,77.47
2019-04-14T05:09:09.895Z,77.47
2019-04-14T05:10:09.636Z,77.28
2019-04-14T05:11:09.725Z,77.09
2019-04-14T05:12:10.916Z,77.37
2019-04-14T05:13:09.688Z,77.28
2019-04-14T05:14:10.863Z,77.75
2019-04-14T05:15:09.742Z,77.75
2019-04-14T05:16:10.663Z,77.09
2019-04-14T05:17:10.210Z,77.84
2019-04-14T05:18:09.824Z,77.47
2019-04-14T05:19:17.141Z,77.47
2019-04-14T05:20:09.880Z,77.66
2019-04-14T05:21:10.375Z,77.09
2019-04-14T05:22:09.935Z,77.47
2019-04-14T05:23:10.212Z,77.84
2019-04-14T05:24:09.993Z,77.84
2019-04-14T05:25:10.149Z,77.66
2019-04-14T05:26:11.253Z,77.47
2019-04-14T05:27:10.077Z,77.47
2019-04-14T05:28:11.175Z,77.28
2019-04-14T05:29:10.135Z,77.47
2019-04-14T05:30:11.187Z,77.66
2019-04-14T05:31:10.188Z,77.66
2019-04-14T05:32:10.866Z,77.66
2019-04-14T05:33:10.257Z,77.75
2019-04-14T05:34:10.764Z,77.47
2019-04-14T05:35:10.301Z,77.66
2019-04-14T05:36:10.663Z,78.13
2019-04-14T05:37:10.356Z,77.56
2019-04-14T05:38:10.555Z,78.13
2019-04-14T05:39:11.379Z,77.75
2019-04-14T05:40:10.444Z,77.94
2019-04-14T05:41:11.422Z,78.32
2019-04-14T05:42:15.687Z,77.75
2019-04-14T05:43:11.321Z,77.84
2019-04-14T05:44:10.553Z,78.32
2019-04-14T05:45:11.188Z,77.94
2019-04-14T05:46:10.608Z,78.32
2019-04-14T05:47:11.089Z,78.42
2019-04-14T05:48:11.726Z,78.13
2019-04-14T05:49:12.093Z,78.42
2019-04-14T05:50:11.681Z,78.61
2019-04-14T05:51:11.007Z,78.80
2019-04-14T05:52:11.945Z,78.51
2019-04-14T05:53:11.004Z,78.51
2019-04-14T05:54:12.053Z,78.42
2019-04-14T05:55:11.271Z,78.32
2019-04-14T05:56:12.085Z,78.51
2019-04-14T05:57:11.232Z,78.23
2019-04-14T05:58:12.089Z,78.42
2019-04-14T05:59:11.359Z,78.32
2019-04-14T06:00:11.003Z,77.75
2019-04-14T06:01:11.375Z,78.13
2019-04-14T06:02:11.551Z,77.47
2019-04-14T06:03:12.341Z,77.28
2019-04-14T06:04:11.449Z,77.28
2019-04-14T06:05:12.835Z,77.75
2019-04-14T06:06:11.173Z,77.75
2019-04-14T06:07:11.199Z,78.42
2019-04-14T06:08:11.226Z,78.32
2019-04-14T06:09:11.266Z,78.32
2019-04-14T06:10:11.283Z,77.94
2019-04-14T06:11:11.315Z,77.94
2019-04-14T06:12:11.339Z,78.51
2019-04-14T06:13:11.903Z,78.42
2019-04-14T06:14:11.394Z,78.42
2019-04-14T06:15:11.423Z,78.61
2019-04-14T06:16:11.453Z,78.70
2019-04-14T06:17:11.479Z,78.61
2019-04-14T06:18:11.507Z,78.70
2019-04-14T06:19:11.535Z,78.42
2019-04-14T06:20:11.569Z,78.80
2019-04-14T06:21:11.593Z,78.61
2019-04-14T06:22:11.619Z,78.61
2019-04-14T06:23:11.648Z,78.80
2019-04-14T06:24:11.675Z,78.61
2019-04-14T06:25:11.705Z,78.61
2019-04-14T06:26:11.738Z,78.89
2019-04-14T06:27:11.760Z,78.13
2019-04-14T06:28:11.789Z,78.32
2019-04-14T06:29:11.819Z,78.61
2019-04-14T06:30:11.844Z,78.42
2019-04-14T06:31:11.877Z,78.61
2019-04-14T06:32:11.903Z,78.51
2019-04-14T06:33:11.930Z,78.42
2019-04-14T06:34:11.958Z,78.61
2019-04-14T06:35:11.986Z,78.51
2019-04-14T06:36:12.013Z,78.32
2019-04-14T06:37:12.042Z,78.13
2019-04-14T06:38:12.074Z,78.42
2019-04-14T06:39:12.098Z,78.51
2019-04-14T06:40:12.127Z,78.51
2019-04-14T06:41:12.155Z,78.51
2019-04-14T06:42:12.192Z,78.32
2019-04-14T06:43:12.210Z,78.61
2019-04-14T06:44:12.237Z,78.32
2019-04-14T06:45:12.267Z,78.61
2019-04-14T06:46:12.301Z,78.70
2019-04-14T06:47:12.375Z,79.08
2019-04-14T06:48:12.359Z,78.80
2019-04-14T06:49:12.380Z,78.99
2019-04-14T06:50:12.410Z,78.70
2019-04-14T06:51:12.436Z,79.27
2019-04-14T06:52:12.465Z,78.80
2019-04-14T06:53:12.496Z,79.65
2019-04-14T06:54:12.521Z,79.17
2019-04-14T06:55:12.548Z,79.50
2019-04-14T06:56:12.577Z,79.31
2019-04-14T06:57:12.606Z,79.79
2019-04-14T06:58:12.638Z,79.60
2019-04-14T06:59:12.670Z,79.22
2019-04-14T07:00:12.700Z,79.46
2019-04-14T07:01:12.720Z,79.46
2019-04-14T07:02:12.745Z,79.31
2019-04-14T07:03:12.774Z,79.22
2019-04-14T07:04:12.803Z,79.55
2019-04-14T07:05:12.831Z,79.65
2019-04-14T07:06:12.856Z,79.69
2019-04-14T07:07:12.888Z,79.97
2019-04-14T07:08:12.939Z,79.84
2019-04-14T07:09:12.944Z,79.60
2019-04-14T07:10:12.970Z,79.84
2019-04-14T07:11:12.999Z,80.35
2019-04-14T07:12:13.135Z,80.16
2019-04-14T07:13:13.991Z,80.16
2019-04-14T07:14:13.084Z,80.07
2019-04-14T07:15:13.111Z,79.88
2019-04-14T07:16:13.159Z,79.97
2019-04-14T07:17:13.169Z,80.45
2019-04-14T07:18:13.196Z,80.32
2019-04-14T07:19:13.226Z,80.35
2019-04-14T07:20:13.270Z,80.07
2019-04-14T07:21:13.281Z,80.64
2019-04-14T07:22:13.310Z,80.13
2019-04-14T07:23:13.338Z,80.35
2019-04-14T07:24:13.443Z,80.16
2019-04-14T07:25:13.394Z,80.26
2019-04-14T07:26:13.421Z,80.26
2019-04-14T07:27:13.450Z,80.64
2019-04-14T07:28:13.491Z,80.45
2019-04-14T07:29:14.850Z,80.26
2019-04-14T07:30:13.535Z,80.07
2019-04-14T07:31:13.562Z,80.07
2019-04-14T07:32:13.620Z,80.74
2019-04-14T07:33:13.620Z,80.55
2019-04-14T07:34:13.649Z,80.74
2019-04-14T07:35:13.681Z,80.83
2019-04-14T07:36:13.712Z,80.55
2019-04-14T07:37:13.738Z,80.35
2019-04-14T07:38:13.761Z,80.83
2019-04-14T07:39:13.789Z,80.93
2019-04-14T07:40:13.818Z,80.83
2019-04-14T07:41:13.849Z,81.02
2019-04-14T07:42:13.877Z,80.93
2019-04-14T07:43:13.907Z,80.64
2019-04-14T07:44:15.077Z,80.55
2019-04-14T07:45:13.958Z,80.93
2019-04-14T07:46:13.985Z,80.45
2019-04-14T07:47:14.015Z,80.16
2019-04-14T07:48:14.051Z,80.26
2019-04-14T07:49:14.070Z,80.07
2019-04-14T07:50:15.165Z,80.16
2019-04-14T07:51:14.128Z,80.07
2019-04-14T07:52:14.175Z,80.55
2019-04-14T07:53:14.186Z,79.79
2019-04-14T07:54:14.212Z,79.97
2019-04-14T07:55:14.245Z,79.97
2019-04-14T07:56:14.270Z,79.50
2019-04-14T07:57:14.300Z,79.79
2019-04-14T07:58:14.326Z,79.97
2019-04-14T07:59:14.356Z,79.22
2019-04-14T08:00:14.384Z,79.41
2019-04-14T08:01:14.411Z,79.97
2019-04-14T08:02:14.440Z,80.07
2019-04-14T08:03:14.470Z,79.69
2019-04-14T08:04:14.500Z,79.41
2019-04-14T08:05:14.526Z,79.41
2019-04-14T08:06:14.552Z,79.60
2019-04-14T08:07:14.585Z,79.97
2019-04-14T08:08:14.609Z,80.02
2019-04-14T08:09:14.639Z,80.16
2019-04-14T08:10:14.667Z,79.97
2019-04-14T08:11:14.695Z,79.88
2019-04-14T08:12:14.723Z,79.54
2019-04-14T08:13:14.753Z,79.41
2019-04-14T08:14:14.782Z,79.22
2019-04-14T08:15:14.815Z,79.60
2019-04-14T08:16:14.837Z,79.60
2019-04-14T08:17:14.869Z,79.60
2019-04-14T08:18:14.894Z,79.79
2019-04-14T08:19:14.923Z,79.60
2019-04-14T08:20:26.687Z,79.79
2019-04-14T08:21:14.980Z,79.60
2019-04-14T08:22:15.007Z,80.02
2019-04-14T08:23:15.036Z,79.83
2019-04-14T08:24:15.064Z,79.54
2019-04-14T08:25:15.095Z,79.73
2019-04-14T08:26:15.122Z,79.73
2019-04-14T08:27:15.151Z,80.49
2019-04-14T08:28:15.181Z,80.30
2019-04-14T08:29:15.210Z,79.92
2019-04-14T08:30:15.236Z,80.21
2019-04-14T08:31:15.269Z,80.11
2019-04-14T08:32:15.293Z,80.11
2019-04-14T08:33:15.322Z,80.11
2019-04-14T08:34:15.351Z,80.68
2019-04-14T08:35:15.381Z,80.87
2019-04-14T08:36:15.406Z,81.16
2019-04-14T08:37:15.438Z,81.06
2019-04-14T08:38:15.462Z,81.16
2019-04-14T08:39:15.496Z,81.16
2019-04-14T08:40:15.521Z,81.54
2019-04-14T08:41:15.551Z,81.54
2019-04-14T08:42:15.580Z,81.63
2019-04-14T08:43:15.609Z,81.63
2019-04-14T08:44:15.638Z,81.44
2019-04-14T08:45:15.669Z,81.63
2019-04-14T08:46:15.693Z,81.73
2019-04-14T08:47:15.722Z,81.63
2019-04-14T08:48:15.752Z,81.54
2019-04-14T08:49:15.778Z,80.96
2019-04-14T08:50:15.810Z,80.96
2019-04-14T08:51:15.835Z,81.25
2019-04-14T08:52:15.869Z,80.77
2019-04-14T08:53:15.893Z,81.25
2019-04-14T08:54:15.921Z,80.96
2019-04-14T08:55:15.950Z,80.49
2019-04-14T08:56:15.980Z,80.58
2019-04-14T08:57:16.008Z,81.16
2019-04-14T08:58:16.037Z,81.44
2019-04-14T08:59:16.068Z,81.16
2019-04-14T09:00:16.093Z,80.96
2019-04-14T09:01:16.122Z,82.01
2019-04-14T09:02:16.149Z,81.73
2019-04-14T09:03:16.177Z,81.06
2019-04-14T09:04:16.208Z,80.68
2019-04-14T09:05:16.236Z,80.58
2019-04-14T09:06:16.264Z,80.58
2019-04-14T09:07:16.293Z,80.96
2019-04-14T09:08:16.322Z,81.16
2019-04-14T09:09:16.352Z,80.30
2019-04-14T09:10:16.383Z,80.11
2019-04-14T09:11:16.409Z,80.58
2019-04-14T09:12:16.484Z,80.68
2019-04-14T09:13:16.467Z,80.87
2019-04-14T09:14:16.493Z,80.58
2019-04-14T09:15:16.526Z,80.63
2019-04-14T09:16:16.555Z,80.34
2019-04-14T09:17:16.580Z,80.63
2019-04-14T09:18:16.653Z,80.05
2019-04-14T09:19:16.642Z,79.96
2019-04-14T09:20:16.668Z,79.39
2019-04-14T09:21:16.706Z,79.77
2019-04-14T09:22:16.724Z,79.77
2019-04-14T09:23:16.753Z,79.58
2019-04-14T09:24:16.788Z,79.58
2019-04-14T09:25:16.832Z,79.20
2019-04-14T09:26:16.839Z,79.11
2019-04-14T09:27:16.871Z,78.63
2019-04-14T09:28:16.897Z,79.68
2019-04-14T09:29:16.935Z,79.01
2019-04-14T09:30:16.955Z,78.72
2019-04-14T09:31:16.984Z,78.25
2019-04-14T09:32:17.012Z,78.44
2019-04-14T09:33:17.043Z,78.44
2019-04-14T09:34:17.073Z,78.34
2019-04-14T09:35:17.098Z,77.87
2019-04-14T09:36:17.130Z,78.06
2019-04-14T09:37:17.157Z,78.44
2019-04-14T09:38:17.186Z,78.72
2019-04-14T09:39:17.232Z,78.63
2019-04-14T09:40:17.243Z,78.34
2019-04-14T09:41:17.324Z,78.16
2019-04-14T09:42:17.300Z,77.68
2019-04-14T09:43:17.331Z,78.16
2019-04-14T09:44:17.361Z,77.58
2019-04-14T09:45:17.395Z,77.97
2019-04-14T09:46:17.418Z,77.97
2019-04-14T09:47:17.448Z,78.16
2019-04-14T09:48:17.477Z,78.34
2019-04-14T09:49:17.504Z,78.63
2019-04-14T09:50:17.533Z,78.82
2019-04-14T09:51:17.574Z,78.72
2019-04-14T09:52:17.597Z,78.53
2019-04-14T09:53:17.625Z,78.72
2019-04-14T09:54:17.662Z,78.82
2019-04-14T09:55:17.680Z,78.16
2019-04-14T09:56:17.710Z,78.16
2019-04-14T09:57:25.685Z,78.63
2019-04-14T09:59:19.747Z,77.68
2019-04-14T10:00:19.772Z,77.77
2019-04-14T10:02:21.788Z,78.00
2019-04-14T10:03:21.809Z,77.39
2019-04-14T10:05:23.839Z,77.49
2019-04-14T10:06:23.875Z,77.24
2019-04-14T10:08:15.779Z,77.43
2019-04-14T10:09:15.805Z,77.39
2019-04-14T10:11:17.846Z,76.82
2019-04-14T10:12:17.846Z,77.30
2019-04-14T10:14:19.853Z,77.43
2019-04-14T10:15:19.875Z,77.49
2019-04-14T10:17:21.906Z,77.43
2019-04-14T10:18:21.911Z,77.43
2019-04-14T10:20:23.927Z,76.86
2019-04-14T10:21:23.948Z,76.48
2019-04-14T10:23:25.966Z,77.15
2019-04-14T10:24:25.980Z,76.57
2019-04-14T10:26:27.996Z,77.34
2019-04-14T10:27:28.022Z,77.43
2019-04-14T10:29:30.064Z,77.43
2019-04-14T10:30:30.073Z,77.34
2019-04-14T10:32:32.091Z,77.05
2019-04-14T10:33:32.118Z,77.53
2019-04-14T10:35:34.123Z,77.24
2019-04-14T10:36:34.150Z,77.72
2019-04-14T10:38:36.347Z,77.81
2019-04-14T10:39:36.374Z,77.81
2019-04-14T10:41:38.392Z,77.11
2019-04-14T10:42:38.417Z,78.10
2019-04-14T10:44:40.423Z,77.97
2019-04-14T10:45:40.447Z,77.97
2019-04-14T10:47:42.452Z,77.24
2019-04-14T10:48:42.476Z,77.24
2019-04-14T10:50:44.484Z,77.24
2019-04-14T10:51:44.519Z,77.24
2019-04-14T10:53:46.539Z,77.62
2019-04-14T10:54:46.545Z,77.58
2019-04-14T10:56:48.553Z,77.87
2019-04-14T10:57:48.604Z,77.62
2019-04-14T10:59:50.602Z,77.43
2019-04-14T11:00:50.608Z,77.43
2019-04-14T11:02:52.623Z,77.43
2019-04-14T11:03:52.641Z,77.43
2019-04-14T11:05:55.147Z,77.34
2019-04-14T11:06:55.175Z,77.43
2019-04-14T11:07:55.204Z,77.53
2019-04-14T11:08:55.230Z,77.53
2019-04-14T11:09:55.259Z,77.34
2019-04-14T11:10:55.296Z,77.72
2019-04-14T11:11:55.323Z,77.43
2019-04-14T11:12:55.348Z,77.53
2019-04-14T11:13:55.378Z,77.43
2019-04-14T11:14:55.411Z,77.43
2019-04-14T11:15:55.436Z,77.24
2019-04-14T11:16:55.465Z,77.43
2019-04-14T11:17:55.496Z,78.00
2019-04-14T11:18:55.524Z,77.72
2019-04-14T11:19:55.561Z,77.15
2019-04-14T11:20:55.582Z,77.43
2019-04-14T11:21:55.614Z,77.34
2019-04-14T11:23:03.179Z,77.43
2019-04-14T11:23:55.672Z,77.43
2019-04-14T11:24:55.701Z,76.96
2019-04-14T11:25:55.729Z,76.86
2019-04-14T11:26:55.762Z,77.24
2019-04-14T11:27:55.790Z,77.53
2019-04-14T11:28:55.818Z,77.53
2019-04-14T11:29:55.848Z,77.43
2019-04-14T11:30:55.887Z,77.24
2019-04-14T11:31:55.908Z,76.67
2019-04-14T11:32:55.938Z,77.53
2019-04-14T11:33:55.966Z,77.43
2019-04-14T11:34:55.997Z,77.47
2019-04-14T11:35:56.027Z,77.37
2019-04-14T11:36:56.055Z,76.81
2019-04-14T11:37:56.084Z,76.52
2019-04-14T11:38:56.120Z,76.52
2019-04-14T11:39:56.144Z,76.52
2019-04-14T11:40:56.176Z,76.42
2019-04-14T11:41:56.204Z,76.14
2019-04-14T11:42:56.232Z,76.81
2019-04-14T11:43:56.275Z,76.04
2019-04-14T11:44:56.292Z,76.14
2019-04-14T11:45:56.322Z,76.42
2019-04-14T11:46:56.353Z,75.85
2019-04-14T11:47:56.383Z,75.57
2019-04-14T11:48:56.410Z,75.95
2019-04-14T11:49:56.440Z,76.14
2019-04-14T11:50:56.471Z,76.14
2019-04-14T11:51:56.502Z,76.14
2019-04-14T11:52:56.531Z,76.04
2019-04-14T11:53:56.558Z,76.42
2019-04-14T11:54:56.592Z,76.33
2019-04-14T11:55:56.621Z,76.33
2019-04-14T11:56:56.668Z,76.33
2019-04-14T11:57:56.695Z,76.23
2019-04-14T11:58:56.709Z,76.18
2019-04-14T11:59:56.742Z,75.70
2019-04-14T12:00:56.767Z,75.89
2019-04-14T12:01:56.799Z,75.70
2019-04-14T12:02:56.830Z,75.70
2019-04-14T12:03:56.859Z,75.23
2019-04-14T12:04:56.901Z,75.51
2019-04-14T12:05:56.919Z,75.70
2019-04-14T12:06:56.950Z,75.42
2019-04-14T12:07:56.983Z,75.04
2019-04-14T12:08:57.008Z,75.04
2019-04-14T12:09:57.039Z,74.75
2019-04-14T12:10:57.069Z,74.56
2019-04-14T12:11:57.101Z,73.99
2019-04-14T12:12:57.131Z,74.02
2019-04-14T12:13:57.162Z,73.83
2019-04-14T12:14:57.190Z,73.36
2019-04-14T12:15:57.222Z,73.17
2019-04-14T12:16:57.249Z,73.17
2019-04-14T12:17:57.282Z,72.88
2019-04-14T12:18:57.310Z,73.01
2019-04-14T12:19:57.340Z,72.53
2019-04-14T12:20:57.370Z,72.06
2019-04-14T12:22:07.676Z,71.33
2019-04-14T12:22:57.434Z,70.47
2019-04-14T12:23:57.465Z,70.28
2019-04-14T12:24:57.492Z,69.71
2019-04-14T12:26:05.127Z,67.90
2019-04-14T12:26:57.553Z,68.18
2019-04-14T12:27:57.934Z,67.93
2019-04-14T12:29:00.138Z,67.04
2019-04-14T12:29:58.807Z,67.42
2019-04-14T12:30:57.676Z,67.36
2019-04-14T12:31:57.707Z,67.42
2019-04-14T12:32:57.737Z,67.52
2019-04-14T12:33:57.771Z,67.23
2019-04-14T12:34:57.800Z,67.04
2019-04-14T12:35:57.830Z,67.14
2019-04-14T12:36:57.860Z,67.04
2019-04-14T12:37:57.892Z,67.14
2019-04-14T12:38:57.923Z,66.85
2019-04-14T12:39:57.956Z,67.14
2019-04-14T12:41:00.216Z,66.66
2019-04-14T12:41:58.033Z,65.70
2019-04-14T12:42:58.047Z,65.42
2019-04-14T12:43:58.077Z,65.80
2019-04-14T12:44:58.106Z,65.99
2019-04-14T12:45:58.139Z,66.18
2019-04-14T12:46:58.170Z,65.61
2019-04-14T12:47:58.201Z,66.28
2019-04-14T12:48:58.242Z,66.56
2019-04-14T12:49:58.263Z,66.38
2019-04-14T12:50:58.294Z,66.28
2019-04-14T12:51:58.326Z,65.89
2019-04-14T12:52:58.355Z,66.18
2019-04-14T12:53:58.386Z,65.70
2019-04-14T12:54:58.419Z,65.99
2019-04-14T12:55:58.449Z,66.09
2019-04-14T12:56:58.479Z,66.09
2019-04-14T12:57:58.514Z,65.80
2019-04-14T12:58:58.542Z,66.38
2019-04-14T12:59:58.576Z,66.56
2019-04-14T13:00:58.603Z,66.94
2019-04-14T13:01:58.637Z,66.47
2019-04-14T13:02:58.667Z,66.18
2019-04-14T13:03:58.699Z,65.70
2019-04-14T13:04:58.730Z,65.70
2019-04-14T13:05:58.763Z,65.70
2019-04-14T13:06:58.791Z,65.45
2019-04-14T13:07:58.823Z,65.52
2019-04-14T13:08:58.915Z,65.23
2019-04-14T13:09:58.963Z,65.45
2019-04-14T13:10:58.975Z,65.55
2019-04-14T13:11:58.952Z,65.45
2019-04-14T13:12:58.983Z,65.36
2019-04-14T13:13:59.020Z,65.26
2019-04-14T13:14:59.040Z,65.64
2019-04-14T13:15:59.073Z,65.36
2019-04-14T13:16:59.104Z,65.17
2019-04-14T13:17:59.140Z,65.36
2019-04-14T13:18:59.166Z,65.17
2019-04-14T13:19:59.197Z,65.17
2019-04-14T13:20:59.229Z,65.45
2019-04-14T13:21:59.260Z,65.17
2019-04-14T13:22:59.291Z,65.55
2019-04-14T13:23:59.327Z,65.64
2019-04-14T13:24:59.353Z,65.26
2019-04-14T13:25:59.386Z,65.45
2019-04-14T13:26:59.451Z,65.55
2019-04-14T13:27:59.448Z,65.36
2019-04-14T13:28:59.479Z,64.97
2019-04-14T13:29:59.511Z,64.91
2019-04-14T13:30:59.543Z,65.01
2019-04-14T13:31:59.574Z,64.43
2019-04-14T13:32:59.605Z,64.62
2019-04-14T13:33:59.637Z,64.43
2019-04-14T13:34:59.668Z,64.05
2019-04-14T13:35:59.701Z,63.67
2019-04-14T13:36:59.796Z,63.76
2019-04-14T13:37:59.829Z,63.57
2019-04-14T13:38:59.795Z,63.57
2019-04-14T13:39:59.826Z,63.00
2019-04-14T13:40:59.857Z,63.00
2019-04-14T13:41:59.890Z,62.34
2019-04-14T13:42:59.921Z,61.41